createdAt,value
2018-11-12T00:01:37.262Z,3.80
2018-11-12T00:02:36.685Z,7.10
2018-11-12T00:04:42.270Z,2.90
2018-11-12T00:07:23.317Z,3.60
2018-11-12T00:08:25.550Z,2.90
2018-11-12T00:10:34.835Z,4.80
2018-11-12T00:11:35.370Z,4.50
2018-11-12T00:13:36.845Z,5.00
2018-11-12T00:14:39.015Z,5.20
2018-11-12T00:16:46.830Z,4.20
2018-11-12T00:17:34.131Z,3.50
2018-11-12T00:19:41.920Z,3.80
2018-11-12T00:20:39.953Z,2.20
2018-11-12T00:21:40.799Z,4.10
2018-11-12T00:22:41.397Z,5.00
2018-11-12T00:23:41.383Z,3.40
2018-11-12T00:24:39.409Z,3.90
2018-11-12T00:25:39.437Z,3.70
2018-11-12T00:44:34.538Z,3.50
2018-11-12T00:45:32.556Z,3.40
2018-11-12T00:47:38.612Z,3.80
2018-11-12T00:48:38.523Z,3.20
2018-11-12T00:49:37.040Z,3.60
2018-11-12T00:50:37.901Z,4.40
2018-11-12T00:51:37.289Z,3.50
2018-11-12T00:52:37.427Z,5.00
2018-11-12T00:53:36.705Z,3.70
2018-11-12T00:54:36.454Z,4.10
2018-11-12T00:55:36.428Z,3.80
2018-11-12T00:56:36.424Z,3.40
2018-11-12T00:57:36.412Z,4.70
2018-11-12T00:58:36.436Z,4.30
2018-11-12T00:59:36.492Z,3.20
2018-11-12T01:00:36.447Z,4.40
2018-11-12T01:01:36.473Z,3.60
2018-11-12T01:02:36.392Z,4.40
2018-11-12T01:03:36.383Z,4.60
2018-11-12T01:04:36.463Z,4.70
2018-11-12T01:05:36.389Z,3.00
2018-11-12T01:06:36.402Z,3.90
2018-11-12T01:07:36.515Z,3.70
2018-11-12T01:08:36.405Z,3.10
2018-11-12T01:09:36.460Z,3.90
2018-11-12T01:10:36.383Z,2.90
2018-11-12T01:11:36.436Z,2.80
2018-11-12T01:12:36.469Z,3.10
2018-11-12T01:13:36.426Z,5.20
2018-11-12T01:14:36.399Z,3.20
2018-11-12T01:15:36.394Z,4.10
2018-11-12T01:16:36.488Z,4.30
2018-11-12T01:17:36.423Z,4.30
2018-11-12T01:18:36.468Z,5.90
2018-11-12T01:19:36.391Z,4.20
2018-11-12T01:20:36.416Z,4.10
2018-11-12T01:21:36.404Z,4.10
2018-11-12T01:22:36.406Z,2.80
2018-11-12T01:24:22.833Z,3.30
2018-11-12T01:25:22.841Z,3.20
2018-11-12T01:27:31.823Z,3.20
2018-11-12T01:28:29.785Z,3.70
2018-11-12T01:30:41.225Z,2.80
2018-11-12T01:33:46.237Z,3.00
2018-11-12T01:34:45.097Z,3.00
2018-11-12T01:36:49.811Z,3.60
2018-11-12T01:37:49.394Z,3.10
2018-11-12T01:39:44.099Z,3.90
2018-11-12T01:40:42.065Z,2.90
2018-11-12T01:41:42.962Z,3.00
2018-11-12T01:42:42.454Z,3.70
2018-11-12T01:43:42.743Z,4.10
2018-11-12T01:44:43.429Z,3.70
2018-11-12T01:45:42.144Z,4.00
2018-11-12T01:46:42.061Z,3.10
2018-11-12T01:47:42.088Z,3.20
2018-11-12T01:48:42.013Z,2.90
2018-11-12T01:49:42.042Z,3.20
2018-11-12T01:50:42.032Z,4.20
2018-11-12T01:51:42.010Z,3.60
2018-11-12T01:52:42.018Z,3.20
2018-11-12T01:53:42.057Z,2.90
2018-11-12T01:54:42.072Z,3.90
2018-11-12T01:55:42.017Z,4.20
2018-11-12T01:56:42.105Z,5.30
2018-11-12T01:57:42.039Z,4.60
2018-11-12T01:58:42.008Z,2.70
2018-11-12T01:59:42.021Z,3.90
2018-11-12T02:00:42.036Z,3.90
2018-11-12T02:01:42.084Z,4.70
2018-11-12T02:02:42.092Z,3.00
2018-11-12T02:03:42.090Z,4.10
2018-11-12T02:04:42.041Z,3.40
2018-11-12T02:05:42.104Z,3.90
2018-11-12T02:06:42.049Z,3.60
2018-11-12T02:07:42.080Z,2.90
2018-11-12T02:08:42.128Z,4.70
2018-11-12T02:09:42.062Z,4.10
2018-11-12T02:10:42.079Z,5.00
2018-11-12T02:11:42.073Z,4.10
2018-11-12T02:12:42.061Z,4.80
2018-11-12T02:13:42.095Z,4.40
2018-11-12T02:14:42.142Z,3.40
2018-11-12T02:15:42.068Z,5.10
2018-11-12T02:16:42.045Z,3.80
2018-11-12T02:17:42.015Z,5.30
2018-11-12T02:18:42.023Z,6.00
2018-11-12T02:19:42.019Z,3.90
2018-11-12T02:20:42.042Z,3.30
2018-11-12T02:21:42.053Z,4.20
2018-11-12T02:22:42.103Z,3.70
2018-11-12T02:23:42.053Z,3.20
2018-11-12T02:24:42.025Z,4.00
2018-11-12T02:25:42.049Z,4.50
2018-11-12T02:26:42.056Z,5.00
2018-11-12T02:27:42.054Z,3.20
2018-11-12T02:28:42.079Z,3.60
2018-11-12T02:29:42.064Z,6.30
2018-11-12T02:30:42.069Z,5.00
2018-11-12T02:31:42.101Z,3.40
2018-11-12T02:32:42.067Z,3.70
2018-11-12T02:33:42.025Z,6.60
2018-11-12T02:34:42.028Z,5.70
2018-11-12T02:35:42.018Z,5.00
2018-11-12T02:36:42.085Z,5.90
2018-11-12T02:37:42.032Z,4.50
2018-11-12T02:38:42.068Z,6.20
2018-11-12T02:39:42.053Z,4.70
2018-11-12T02:40:42.094Z,4.70
2018-11-12T02:41:42.094Z,5.60
2018-11-12T02:42:42.093Z,4.40
2018-11-12T02:43:42.047Z,4.70
2018-11-12T15:52:49.393Z,16.50
2018-11-12T15:55:01.532Z,19.20
2018-11-12T15:59:02.905Z,32.30
2018-11-12T16:02:15.674Z,34.60
2018-11-12T16:02:55.612Z,34.20
2018-11-12T16:08:39.721Z,38.70
2018-11-12T16:09:38.530Z,39.20
2018-11-12T16:11:48.441Z,37.50
2018-11-12T16:12:37.267Z,36.90
2018-11-12T16:13:38.482Z,39.00
2018-11-12T16:14:37.987Z,36.30
2018-11-12T16:15:36.960Z,37.50
2018-11-12T16:16:36.927Z,34.40
2018-11-12T16:17:36.954Z,35.70
2018-11-12T16:18:36.993Z,40.40
2018-11-12T16:19:36.982Z,35.20
2018-11-12T16:20:36.926Z,34.30
2018-11-12T16:21:36.926Z,39.70
2018-11-12T16:22:37.348Z,35.20
2018-11-12T16:23:36.953Z,38.20
2018-11-12T16:24:37.072Z,39.10
2018-11-12T16:25:37.091Z,34.80
2018-11-12T16:26:37.011Z,35.00
2018-11-12T16:27:36.932Z,38.90
2018-11-12T16:28:36.961Z,37.00
2018-11-12T16:29:36.954Z,34.80
2018-11-12T16:30:36.932Z,35.50
2018-11-12T16:31:36.986Z,33.00
2018-11-12T16:32:37.009Z,40.40
2018-11-12T16:33:37.010Z,39.30
2018-11-12T16:34:36.995Z,37.60
2018-11-12T16:35:36.947Z,35.80
2018-11-12T16:36:36.969Z,38.10
2018-11-12T16:37:37.004Z,38.40
2018-11-12T16:38:36.959Z,35.80
2018-11-12T16:39:37.003Z,38.20
2018-11-12T16:40:36.997Z,35.70
2018-11-12T16:41:36.964Z,38.60
2018-11-12T16:42:36.935Z,38.30
2018-11-12T16:43:36.981Z,35.40
2018-11-12T16:44:36.991Z,36.70
2018-11-12T16:45:36.982Z,36.60
2018-11-12T16:46:36.941Z,40.50
2018-11-12T16:47:37.009Z,36.50
2018-11-12T16:48:36.988Z,36.20
2018-11-12T16:49:37.048Z,37.60
2018-11-12T16:50:36.957Z,37.40
2018-11-12T16:51:36.940Z,37.70
2018-11-12T16:52:36.959Z,36.50
2018-11-12T16:53:36.976Z,40.50
2018-11-12T16:54:36.953Z,37.40
2018-11-12T16:55:37.013Z,36.10
2018-11-12T16:56:37.042Z,36.00
2018-11-12T16:57:36.942Z,35.50
2018-11-12T16:58:36.947Z,35.60
2018-11-12T16:59:36.945Z,38.40
2018-11-12T17:00:36.981Z,38.60
2018-11-12T17:01:37.712Z,38.60
2018-11-12T17:02:37.332Z,35.30
2018-11-12T17:03:36.979Z,36.90
2018-11-12T17:04:37.512Z,36.30
2018-11-12T17:05:36.972Z,35.80
2018-11-12T17:06:36.992Z,36.20
2018-11-12T17:07:36.977Z,33.60
2018-11-12T17:08:37.015Z,33.70
2018-11-12T17:09:36.989Z,34.60
2018-11-12T17:10:36.987Z,33.50
2018-11-12T17:11:37.029Z,34.90
2018-11-12T17:12:37.007Z,33.70
2018-11-12T17:13:37.048Z,31.60
2018-11-12T17:14:37.020Z,33.00
2018-11-12T17:15:37.004Z,33.70
2018-11-12T17:16:37.107Z,32.80
2018-11-12T17:17:37.287Z,33.90
2018-11-12T17:18:37.117Z,33.70
2018-11-12T17:19:37.044Z,34.80
2018-11-12T17:20:37.103Z,34.30
2018-11-12T17:21:37.063Z,29.80
2018-11-12T17:22:37.083Z,30.40
2018-11-12T17:23:37.086Z,30.30
2018-11-12T17:24:37.241Z,29.90
2018-11-12T17:25:37.278Z,30.30
2018-11-12T17:26:37.063Z,28.80
2018-11-12T17:27:37.065Z,27.70
2018-11-12T17:28:36.946Z,28.80
2018-11-12T17:29:36.993Z,29.10
2018-11-12T17:30:37.188Z,26.70
2018-11-12T17:31:37.026Z,25.80
2018-11-12T17:32:37.055Z,26.70
2018-11-12T17:33:36.934Z,26.70
2018-11-12T17:34:36.939Z,27.70
2018-11-12T17:35:36.953Z,26.80
2018-11-12T17:36:37.025Z,26.40
2018-11-12T17:37:36.941Z,25.10
2018-11-12T17:38:36.949Z,24.50
2018-11-12T17:39:36.964Z,25.70
2018-11-12T17:40:36.970Z,24.60
2018-11-12T17:41:36.938Z,24.40
2018-11-12T17:42:36.966Z,26.10
2018-11-12T17:43:36.981Z,25.00
2018-11-12T17:44:36.962Z,25.30
2018-11-12T17:45:36.939Z,25.70
2018-11-12T17:46:36.935Z,26.50
2018-11-12T17:47:37.022Z,26.00
2018-11-12T17:48:36.936Z,24.50
2018-11-12T17:49:37.029Z,24.40
2018-11-12T17:50:36.934Z,24.80
2018-11-12T17:51:51.209Z,25.60
2018-11-12T17:53:47.193Z,25.30
2018-11-12T17:54:45.437Z,25.00
2018-11-12T17:56:42.418Z,25.00
2018-11-12T17:57:41.543Z,22.80
2018-11-12T17:58:42.673Z,25.00
2018-11-12T17:59:40.781Z,24.00
2018-11-12T18:00:47.353Z,23.40
2018-11-12T18:01:42.106Z,24.60
2018-11-12T18:02:40.674Z,23.20
2018-11-12T18:03:40.662Z,23.40
2018-11-12T18:04:40.524Z,22.30
2018-11-12T18:05:40.621Z,25.30
2018-11-12T18:06:40.624Z,23.30
2018-11-12T18:07:40.785Z,26.40
2018-11-12T18:08:40.577Z,25.60
2018-11-12T18:09:40.586Z,25.60
2018-11-12T18:10:40.521Z,24.60
2018-11-12T18:13:24.608Z,26.10
2018-11-12T18:14:24.541Z,26.70
2018-11-12T18:15:31.760Z,26.50
2018-11-12T18:17:31.688Z,25.80
2018-11-12T18:20:27.075Z,26.10
2018-11-12T18:21:28.573Z,23.40
2018-11-12T18:22:28.530Z,25.90
2018-11-12T18:23:28.396Z,26.80
2018-11-12T18:27:40.994Z,27.10
2018-11-12T18:30:20.600Z,26.30
2018-11-12T18:33:00.197Z,27.70
2018-11-12T18:36:02.325Z,25.90
2018-11-12T18:38:51.340Z,27.20
2018-11-12T18:41:20.892Z,27.00
2018-11-12T18:42:19.825Z,26.30
2018-11-12T18:46:01.573Z,26.20
2018-11-12T18:48:42.532Z,26.20
2018-11-12T18:51:25.151Z,26.20
2018-11-12T18:52:15.434Z,27.50
2018-11-12T18:53:28.335Z,25.70
2018-11-12T18:55:43.896Z,28.20
2018-11-12T18:58:24.032Z,27.70
2018-11-12T19:01:17.481Z,32.40
2018-11-12T19:02:17.898Z,30.50
2018-11-12T19:08:02.380Z,32.60
2018-11-12T19:18:11.503Z,35.20
2018-11-12T19:21:14.191Z,31.80
2018-11-12T19:25:10.138Z,35.20
2018-11-12T19:25:15.577Z,34.20
2018-11-12T19:26:06.758Z,32.00
2018-11-12T19:30:35.917Z,31.70
2018-11-12T19:31:36.818Z,31.30
2018-11-12T19:35:38.034Z,33.00
2018-11-12T19:39:03.020Z,32.40
2018-11-12T19:40:08.616Z,33.90
2018-11-12T19:41:15.918Z,34.30
2018-11-12T19:42:03.133Z,33.70
2018-11-12T19:43:21.071Z,34.30
2018-11-12T19:44:05.757Z,33.50
2018-11-12T19:45:05.213Z,34.30
2018-11-12T19:46:03.065Z,36.00
2018-11-12T19:47:02.791Z,34.00
2018-11-12T19:48:02.979Z,37.20
2018-11-12T19:49:15.397Z,36.80
2018-11-12T19:50:06.601Z,33.10
2018-11-12T19:51:02.762Z,34.80
2018-11-12T19:52:02.965Z,32.70
2018-11-12T19:59:52.833Z,34.60
2018-11-12T20:00:46.419Z,38.00
2018-11-12T20:01:35.151Z,33.70
2018-11-12T22:03:01.087Z,39.80
2018-11-12T22:03:58.862Z,33.40
2018-11-12T22:05:55.379Z,30.40
2018-11-12T22:06:54.836Z,34.20
2018-11-12T22:07:53.086Z,41.30
2018-11-12T22:08:53.144Z,39.80
2018-11-12T22:09:54.845Z,38.10
2018-11-12T22:10:53.669Z,32.00
2018-11-12T22:11:52.765Z,44.10
2018-11-12T22:12:52.708Z,31.00
2018-11-12T22:13:52.692Z,28.50
2018-11-12T22:14:52.699Z,37.60
2018-11-12T22:15:52.704Z,36.50
2018-11-12T22:16:52.712Z,38.10
2018-11-12T22:18:03.131Z,36.50
2018-11-12T22:20:05.531Z,29.20
2018-11-12T22:21:04.210Z,29.80
2018-11-12T22:23:11.913Z,34.00
2018-11-12T22:24:22.020Z,33.50
2018-11-12T22:26:08.961Z,30.40
2018-11-12T22:29:30.399Z,33.10
2018-11-12T22:30:29.803Z,39.20
2018-11-12T22:33:05.445Z,34.20
2018-11-12T22:34:16.422Z,36.40
2018-11-12T22:38:03.448Z,34.40
2018-11-12T22:39:01.253Z,37.90
2018-11-12T22:40:58.948Z,39.40
2018-11-12T22:43:46.246Z,44.30
2018-11-12T22:44:35.045Z,41.30
2018-11-12T22:47:21.424Z,45.60
2018-11-12T22:48:24.349Z,43.40
2018-11-12T22:50:18.540Z,44.20
2018-11-12T22:51:30.583Z,49.20
2018-11-12T22:53:29.512Z,49.40
2018-11-12T22:54:41.678Z,43.90
2018-11-12T22:56:26.930Z,45.00
2018-11-12T22:57:27.129Z,39.20
2018-11-12T22:59:33.907Z,54.30
2018-11-12T23:00:34.089Z,46.10
2018-11-12T23:01:34.034Z,64.30
2018-11-12T23:02:45.543Z,42.20
2018-11-12T23:04:41.445Z,43.70
2018-11-12T23:05:41.270Z,44.40
2018-11-12T23:06:41.520Z,47.90
2018-11-12T23:07:40.937Z,48.80
2018-11-12T23:08:40.808Z,52.60
2018-11-12T23:11:21.435Z,51.50
2018-11-12T23:14:14.390Z,46.00
2018-11-12T23:15:09.225Z,46.10
2018-11-12T23:17:03.303Z,47.10
2018-11-12T23:18:14.606Z,58.90
2018-11-12T23:20:11.264Z,56.20
2018-11-12T23:21:23.370Z,44.90
2018-11-12T23:23:31.643Z,52.00
2018-11-12T23:24:18.871Z,47.40
2018-11-12T23:25:32.288Z,58.30
2018-11-12T23:27:14.794Z,43.30
2018-11-12T23:28:26.239Z,63.80
2018-11-12T23:30:30.067Z,56.10
2018-11-12T23:31:30.129Z,55.50
2018-11-12T23:33:39.808Z,45.20
2018-11-12T23:34:38.413Z,46.10
2018-11-12T23:36:22.673Z,47.70
2018-11-12T23:37:23.336Z,49.60
2018-11-12T23:38:34.017Z,50.10
2018-11-12T23:40:29.808Z,67.60
2018-11-12T23:41:41.635Z,73.10
2018-11-12T23:43:37.318Z,54.80
2018-11-12T23:44:49.317Z,61.40
2018-11-12T23:46:30.392Z,54.10
2018-11-12T23:47:30.412Z,59.00
2018-11-12T23:49:37.039Z,57.20
2018-11-12T23:50:47.246Z,56.40
2018-11-12T23:52:52.500Z,67.80
2018-11-12T23:53:43.644Z,67.40
2018-11-12T23:55:59.086Z,57.70
2018-11-12T23:57:01.609Z,49.90
